sensor_id;sensor_type;location;lat;lon;timestamp;P1;durP1;ratioP1;P2;durP2;ratioP2
56943;SDS011;42848;42.524;12.052;2023-03-31T00:02:19;7.50;;;3.35;;
56943;SDS011;42848;42.524;12.052;2023-03-31T00:04:47;8.57;;;3.42;;
56943;SDS011;42848;42.524;12.052;2023-03-31T00:07:23;6.53;;;3.20;;
56943;SDS011;42848;42.524;12.052;2023-03-31T00:09:49;8.77;;;3.63;;
56943;SDS011;42848;42.524;12.052;2023-03-31T00:12:19;8.88;;;3.72;;
56943;SDS011;42848;42.524;12.052;2023-03-31T00:14:46;7.78;;;3.60;;
56943;SDS011;42848;42.524;12.052;2023-03-31T00:17:12;7.85;;;3.90;;
56943;SDS011;42848;42.524;12.052;2023-03-31T00:19:38;7.65;;;3.58;;
56943;SDS011;42848;42.524;12.052;2023-03-31T00:22:06;10.75;;;3.40;;
56943;SDS011;42848;42.524;12.052;2023-03-31T00:24:32;7.38;;;3.70;;
56943;SDS011;42848;42.524;12.052;2023-03-31T00:27:02;7.57;;;3.58;;
56943;SDS011;42848;42.524;12.052;2023-03-31T00:29:30;8.68;;;4.00;;
56943;SDS011;42848;42.524;12.052;2023-03-31T00:31:57;7.00;;;3.53;;
56943;SDS011;42848;42.524;12.052;2023-03-31T00:34:24;9.25;;;3.80;;
56943;SDS011;42848;42.524;12.052;2023-03-31T00:36:50;8.45;;;3.70;;
56943;SDS011;42848;42.524;12.052;2023-03-31T00:39:20;7.70;;;3.72;;
56943;SDS011;42848;42.524;12.052;2023-03-31T00:41:47;7.70;;;4.00;;
56943;SDS011;42848;42.524;12.052;2023-03-31T00:44:14;7.72;;;4.00;;
56943;SDS011;42848;42.524;12.052;2023-03-31T00:46:44;6.90;;;3.40;;
56943;SDS011;42848;42.524;12.052;2023-03-31T00:49:17;8.05;;;4.10;;
56943;SDS011;42848;42.524;12.052;2023-03-31T00:51:56;7.60;;;4.10;;
56943;SDS011;42848;42.524;12.052;2023-03-31T00:54:26;9.57;;;4.47;;
56943;SDS011;42848;42.524;12.052;2023-03-31T00:56:54;9.00;;;3.70;;
56943;SDS011;42848;42.524;12.052;2023-03-31T00:59:23;6.53;;;3.35;;
56943;SDS011;42848;42.524;12.052;2023-03-31T01:01:52;6.10;;;3.40;;
56943;SDS011;42848;42.524;12.052;2023-03-31T01:04:19;8.02;;;3.33;;
56943;SDS011;42848;42.524;12.052;2023-03-31T01:06:54;7.32;;;3.88;;
56943;SDS011;42848;42.524;12.052;2023-03-31T01:09:36;5.93;;;3.40;;
56943;SDS011;42848;42.524;12.052;2023-03-31T01:12:05;6.85;;;3.00;;
56943;SDS011;42848;42.524;12.052;2023-03-31T01:14:33;9.45;;;3.30;;
56943;SDS011;42848;42.524;12.052;2023-03-31T01:16:59;8.18;;;3.28;;
56943;SDS011;42848;42.524;12.052;2023-03-31T01:22:13;6.63;;;3.15;;
56943;SDS011;42848;42.524;12.052;2023-03-31T01:25:12;9.30;;;3.55;;
56943;SDS011;42848;42.524;12.052;2023-03-31T01:30:55;7.07;;;3.20;;
56943;SDS011;42848;42.524;12.052;2023-03-31T01:33:35;7.22;;;3.10;;
56943;SDS011;42848;42.524;12.052;2023-03-31T01:36:15;5.32;;;3.05;;
56943;SDS011;42848;42.524;12.052;2023-03-31T01:42:29;7.03;;;3.47;;
56943;SDS011;42848;42.524;12.052;2023-03-31T01:48:06;6.38;;;3.70;;
56943;SDS011;42848;42.524;12.052;2023-03-31T01:51:38;9.43;;;3.90;;
56943;SDS011;42848;42.524;12.052;2023-03-31T01:54:01;7.65;;;3.55;;
56943;SDS011;42848;42.524;12.052;2023-03-31T02:00:01;8.00;;;3.83;;
56943;SDS011;42848;42.524;12.052;2023-03-31T02:02:36;7.65;;;3.70;;
56943;SDS011;42848;42.524;12.052;2023-03-31T02:05:12;6.03;;;3.80;;
56943;SDS011;42848;42.524;12.052;2023-03-31T02:07:47;6.07;;;3.58;;
56943;SDS011;42848;42.524;12.052;2023-03-31T02:10:17;8.73;;;3.88;;
56943;SDS011;42848;42.524;12.052;2023-03-31T02:12:44;9.48;;;3.90;;
56943;SDS011;42848;42.524;12.052;2023-03-31T02:15:13;10.55;;;3.90;;
56943;SDS011;42848;42.524;12.052;2023-03-31T02:17:47;11.23;;;4.00;;
56943;SDS011;42848;42.524;12.052;2023-03-31T02:20:16;7.78;;;3.70;;
56943;SDS011;42848;42.524;12.052;2023-03-31T02:22:45;7.55;;;4.00;;
56943;SDS011;42848;42.524;12.052;2023-03-31T02:27:48;8.45;;;3.75;;
56943;SDS011;42848;42.524;12.052;2023-03-31T02:30:20;8.23;;;3.85;;
56943;SDS011;42848;42.524;12.052;2023-03-31T02:32:46;9.98;;;4.10;;
56943;SDS011;42848;42.524;12.052;2023-03-31T02:35:14;9.30;;;4.20;;
56943;SDS011;42848;42.524;12.052;2023-03-31T02:37:41;9.55;;;4.28;;
56943;SDS011;42848;42.524;12.052;2023-03-31T02:40:11;9.20;;;4.40;;
56943;SDS011;42848;42.524;12.052;2023-03-31T02:42:41;10.87;;;4.70;;
56943;SDS011;42848;42.524;12.052;2023-03-31T02:48:19;9.07;;;4.50;;
56943;SDS011;42848;42.524;12.052;2023-03-31T03:10:09;9.65;;;4.72;;
56943;SDS011;42848;42.524;12.052;2023-03-31T03:15:20;8.30;;;4.90;;
56943;SDS011;42848;42.524;12.052;2023-03-31T03:17:51;9.00;;;4.70;;
56943;SDS011;42848;42.524;12.052;2023-03-31T03:20:19;9.82;;;5.18;;
56943;SDS011;42848;42.524;12.052;2023-03-31T03:22:47;9.13;;;4.40;;
56943;SDS011;42848;42.524;12.052;2023-03-31T03:25:13;9.30;;;4.60;;
56943;SDS011;42848;42.524;12.052;2023-03-31T03:27:44;7.55;;;4.75;;
56943;SDS011;42848;42.524;12.052;2023-03-31T03:30:10;9.63;;;4.97;;
56943;SDS011;42848;42.524;12.052;2023-03-31T03:32:37;10.43;;;5.15;;
56943;SDS011;42848;42.524;12.052;2023-03-31T03:35:04;10.32;;;4.78;;
56943;SDS011;42848;42.524;12.052;2023-03-31T03:37:31;12.25;;;4.70;;
56943;SDS011;42848;42.524;12.052;2023-03-31T03:39:57;9.40;;;4.88;;
56943;SDS011;42848;42.524;12.052;2023-03-31T03:42:23;9.13;;;4.60;;
56943;SDS011;42848;42.524;12.052;2023-03-31T03:44:48;12.00;;;5.00;;
56943;SDS011;42848;42.524;12.052;2023-03-31T03:47:14;7.97;;;4.57;;
56943;SDS011;42848;42.524;12.052;2023-03-31T03:49:40;8.63;;;4.75;;
56943;SDS011;42848;42.524;12.052;2023-03-31T03:52:06;9.18;;;4.43;;
56943;SDS011;42848;42.524;12.052;2023-03-31T03:54:32;10.05;;;4.68;;
56943;SDS011;42848;42.524;12.052;2023-03-31T03:56:57;9.23;;;4.55;;
56943;SDS011;42848;42.524;12.052;2023-03-31T03:59:23;8.80;;;4.75;;
56943;SDS011;42848;42.524;12.052;2023-03-31T04:01:49;10.82;;;5.05;;
56943;SDS011;42848;42.524;12.052;2023-03-31T04:04:16;9.13;;;5.18;;
56943;SDS011;42848;42.524;12.052;2023-03-31T04:06:42;8.25;;;4.90;;
56943;SDS011;42848;42.524;12.052;2023-03-31T04:09:08;12.43;;;4.95;;
56943;SDS011;42848;42.524;12.052;2023-03-31T04:11:34;12.15;;;4.60;;
56943;SDS011;42848;42.524;12.052;2023-03-31T04:14:00;9.98;;;5.10;;
56943;SDS011;42848;42.524;12.052;2023-03-31T04:16:26;12.30;;;5.07;;
56943;SDS011;42848;42.524;12.052;2023-03-31T04:18:52;9.82;;;5.35;;
56943;SDS011;42848;42.524;12.052;2023-03-31T04:21:21;9.52;;;5.57;;
56943;SDS011;42848;42.524;12.052;2023-03-31T04:23:51;9.20;;;4.95;;
56943;SDS011;42848;42.524;12.052;2023-03-31T04:26:26;7.93;;;4.82;;
56943;SDS011;42848;42.524;12.052;2023-03-31T04:29:06;10.10;;;5.10;;
56943;SDS011;42848;42.524;12.052;2023-03-31T04:31:33;10.05;;;5.28;;
56943;SDS011;42848;42.524;12.052;2023-03-31T04:34:03;11.35;;;5.07;;
56943;SDS011;42848;42.524;12.052;2023-03-31T04:36:34;9.15;;;5.15;;
56943;SDS011;42848;42.524;12.052;2023-03-31T04:38:59;9.25;;;5.10;;
56943;SDS011;42848;42.524;12.052;2023-03-31T04:41:25;10.15;;;5.00;;
56943;SDS011;42848;42.524;12.052;2023-03-31T04:43:52;10.23;;;4.78;;
56943;SDS011;42848;42.524;12.052;2023-03-31T04:46:17;8.98;;;4.47;;
56943;SDS011;42848;42.524;12.052;2023-03-31T04:48:43;9.80;;;4.57;;
56943;SDS011;42848;42.524;12.052;2023-03-31T04:51:09;9.30;;;4.50;;
56943;SDS011;42848;42.524;12.052;2023-03-31T04:53:35;10.05;;;5.05;;
56943;SDS011;42848;42.524;12.052;2023-03-31T04:56:01;9.15;;;4.85;;
56943;SDS011;42848;42.524;12.052;2023-03-31T04:58:28;11.60;;;5.45;;
56943;SDS011;42848;42.524;12.052;2023-03-31T05:00:53;9.50;;;5.03;;
56943;SDS011;42848;42.524;12.052;2023-03-31T05:03:19;8.68;;;5.18;;
56943;SDS011;42848;42.524;12.052;2023-03-31T05:05:45;9.68;;;5.38;;
56943;SDS011;42848;42.524;12.052;2023-03-31T05:08:11;8.05;;;5.10;;
56943;SDS011;42848;42.524;12.052;2023-03-31T05:10:37;11.38;;;5.20;;
56943;SDS011;42848;42.524;12.052;2023-03-31T05:13:02;9.30;;;5.22;;
56943;SDS011;42848;42.524;12.052;2023-03-31T05:15:28;11.73;;;5.70;;
56943;SDS011;42848;42.524;12.052;2023-03-31T05:17:54;9.43;;;5.60;;
56943;SDS011;42848;42.524;12.052;2023-03-31T05:20:19;10.07;;;5.93;;
56943;SDS011;42848;42.524;12.052;2023-03-31T05:22:45;12.15;;;5.78;;
56943;SDS011;42848;42.524;12.052;2023-03-31T05:25:12;10.50;;;5.65;;
56943;SDS011;42848;42.524;12.052;2023-03-31T05:27:42;11.52;;;6.03;;
56943;SDS011;42848;42.524;12.052;2023-03-31T05:30:10;11.05;;;5.53;;
56943;SDS011;42848;42.524;12.052;2023-03-31T05:32:36;9.32;;;5.47;;
56943;SDS011;42848;42.524;12.052;2023-03-31T05:35:01;9.95;;;5.53;;
56943;SDS011;42848;42.524;12.052;2023-03-31T05:37:27;10.43;;;5.53;;
56943;SDS011;42848;42.524;12.052;2023-03-31T05:39:53;10.40;;;5.72;;
56943;SDS011;42848;42.524;12.052;2023-03-31T05:42:19;12.73;;;7.43;;
56943;SDS011;42848;42.524;12.052;2023-03-31T05:44:45;12.77;;;6.18;;
56943;SDS011;42848;42.524;12.052;2023-03-31T05:47:11;11.68;;;6.80;;
56943;SDS011;42848;42.524;12.052;2023-03-31T05:49:37;12.15;;;6.40;;
56943;SDS011;42848;42.524;12.052;2023-03-31T05:52:03;11.48;;;6.10;;
56943;SDS011;42848;42.524;12.052;2023-03-31T05:54:31;31.30;;;18.58;;
56943;SDS011;42848;42.524;12.052;2023-03-31T05:56:57;10.43;;;6.60;;
56943;SDS011;42848;42.524;12.052;2023-03-31T05:59:23;21.08;;;11.23;;
56943;SDS011;42848;42.524;12.052;2023-03-31T06:01:48;13.85;;;7.88;;
56943;SDS011;42848;42.524;12.052;2023-03-31T06:04:14;12.65;;;7.25;;
56943;SDS011;42848;42.524;12.052;2023-03-31T06:06:40;13.82;;;7.75;;
56943;SDS011;42848;42.524;12.052;2023-03-31T06:09:07;12.23;;;6.18;;
56943;SDS011;42848;42.524;12.052;2023-03-31T06:11:32;10.35;;;6.15;;
56943;SDS011;42848;42.524;12.052;2023-03-31T06:13:59;11.23;;;6.25;;
56943;SDS011;42848;42.524;12.052;2023-03-31T06:16:24;10.10;;;5.80;;
56943;SDS011;42848;42.524;12.052;2023-03-31T06:18:50;13.25;;;6.03;;
56943;SDS011;42848;42.524;12.052;2023-03-31T06:21:17;14.75;;;8.93;;
56943;SDS011;42848;42.524;12.052;2023-03-31T06:23:43;12.85;;;6.85;;
56943;SDS011;42848;42.524;12.052;2023-03-31T06:26:11;10.90;;;7.05;;
56943;SDS011;42848;42.524;12.052;2023-03-31T06:28:38;14.95;;;8.55;;
56943;SDS011;42848;42.524;12.052;2023-03-31T06:31:05;13.40;;;6.95;;
56943;SDS011;42848;42.524;12.052;2023-03-31T06:33:33;11.82;;;7.05;;
56943;SDS011;42848;42.524;12.052;2023-03-31T06:36:00;15.52;;;7.07;;
56943;SDS011;42848;42.524;12.052;2023-03-31T06:38:28;10.75;;;6.55;;
56943;SDS011;42848;42.524;12.052;2023-03-31T06:40:54;16.15;;;7.43;;
56943;SDS011;42848;42.524;12.052;2023-03-31T06:43:19;12.38;;;7.78;;
56943;SDS011;42848;42.524;12.052;2023-03-31T06:45:45;14.50;;;8.07;;
56943;SDS011;42848;42.524;12.052;2023-03-31T06:48:12;12.52;;;6.25;;
56943;SDS011;42848;42.524;12.052;2023-03-31T06:50:38;14.75;;;7.85;;
56943;SDS011;42848;42.524;12.052;2023-03-31T06:53:06;16.98;;;9.30;;
56943;SDS011;42848;42.524;12.052;2023-03-31T06:55:32;13.95;;;7.45;;
56943;SDS011;42848;42.524;12.052;2023-03-31T06:57:59;14.20;;;7.20;;
56943;SDS011;42848;42.524;12.052;2023-03-31T07:00:24;11.95;;;7.00;;
56943;SDS011;42848;42.524;12.052;2023-03-31T07:02:51;10.77;;;6.70;;
56943;SDS011;42848;42.524;12.052;2023-03-31T07:05:18;15.00;;;6.78;;
56943;SDS011;42848;42.524;12.052;2023-03-31T07:07:51;13.43;;;6.60;;
56943;SDS011;42848;42.524;12.052;2023-03-31T07:10:20;13.50;;;6.40;;
56943;SDS011;42848;42.524;12.052;2023-03-31T07:12:47;12.13;;;6.32;;
56943;SDS011;42848;42.524;12.052;2023-03-31T07:15:13;15.32;;;5.80;;
56943;SDS011;42848;42.524;12.052;2023-03-31T07:17:38;12.43;;;6.10;;
56943;SDS011;42848;42.524;12.052;2023-03-31T07:20:08;11.18;;;6.25;;
56943;SDS011;42848;42.524;12.052;2023-03-31T07:22:39;12.48;;;6.40;;
56943;SDS011;42848;42.524;12.052;2023-03-31T07:25:06;13.40;;;6.40;;
56943;SDS011;42848;42.524;12.052;2023-03-31T07:27:36;9.25;;;5.93;;
56943;SDS011;42848;42.524;12.052;2023-03-31T07:30:06;9.77;;;5.25;;
56943;SDS011;42848;42.524;12.052;2023-03-31T07:32:37;12.40;;;5.82;;
56943;SDS011;42848;42.524;12.052;2023-03-31T07:35:05;10.15;;;5.75;;
56943;SDS011;42848;42.524;12.052;2023-03-31T07:37:39;11.98;;;5.60;;
56943;SDS011;42848;42.524;12.052;2023-03-31T07:40:08;10.02;;;5.50;;
56943;SDS011;42848;42.524;12.052;2023-03-31T07:42:36;11.93;;;5.32;;
56943;SDS011;42848;42.524;12.052;2023-03-31T07:45:02;10.15;;;5.47;;
56943;SDS011;42848;42.524;12.052;2023-03-31T07:47:30;10.07;;;5.30;;
56943;SDS011;42848;42.524;12.052;2023-03-31T07:49:56;13.75;;;6.15;;
56943;SDS011;42848;42.524;12.052;2023-03-31T07:52:22;9.55;;;5.47;;
56943;SDS011;42848;42.524;12.052;2023-03-31T07:54:48;12.10;;;6.13;;
56943;SDS011;42848;42.524;12.052;2023-03-31T07:57:14;12.70;;;6.72;;
56943;SDS011;42848;42.524;12.052;2023-03-31T07:59:41;12.38;;;7.20;;
56943;SDS011;42848;42.524;12.052;2023-03-31T08:02:09;15.98;;;7.00;;
56943;SDS011;42848;42.524;12.052;2023-03-31T08:04:39;12.32;;;6.88;;
56943;SDS011;42848;42.524;12.052;2023-03-31T08:07:08;13.32;;;7.15;;
56943;SDS011;42848;42.524;12.052;2023-03-31T08:09:35;12.18;;;6.85;;
56943;SDS011;42848;42.524;12.052;2023-03-31T08:12:01;10.98;;;5.72;;
56943;SDS011;42848;42.524;12.052;2023-03-31T08:14:27;10.38;;;5.53;;
56943;SDS011;42848;42.524;12.052;2023-03-31T08:16:53;9.32;;;5.50;;
56943;SDS011;42848;42.524;12.052;2023-03-31T08:19:19;10.23;;;5.88;;
56943;SDS011;42848;42.524;12.052;2023-03-31T08:21:46;12.48;;;6.07;;
56943;SDS011;42848;42.524;12.052;2023-03-31T08:24:12;13.02;;;6.85;;
56943;SDS011;42848;42.524;12.052;2023-03-31T08:26:39;13.23;;;9.02;;
56943;SDS011;42848;42.524;12.052;2023-03-31T08:29:05;16.55;;;10.40;;
56943;SDS011;42848;42.524;12.052;2023-03-31T08:31:31;14.90;;;9.43;;
56943;SDS011;42848;42.524;12.052;2023-03-31T08:33:57;15.73;;;8.02;;
56943;SDS011;42848;42.524;12.052;2023-03-31T08:36:23;11.43;;;6.40;;
56943;SDS011;42848;42.524;12.052;2023-03-31T08:38:50;11.20;;;6.65;;
56943;SDS011;42848;42.524;12.052;2023-03-31T08:44:08;16.20;;;7.40;;
56943;SDS011;42848;42.524;12.052;2023-03-31T08:46:37;13.95;;;6.80;;
56943;SDS011;42848;42.524;12.052;2023-03-31T08:49:04;13.35;;;7.32;;
56943;SDS011;42848;42.524;12.052;2023-03-31T08:51:33;14.45;;;6.90;;
56943;SDS011;42848;42.524;12.052;2023-03-31T08:56:36;13.18;;;7.18;;
56943;SDS011;42848;42.524;12.052;2023-03-31T08:59:06;14.10;;;6.68;;
56943;SDS011;42848;42.524;12.052;2023-03-31T09:01:59;14.95;;;7.85;;
56943;SDS011;42848;42.524;12.052;2023-03-31T09:04:51;17.67;;;7.15;;
56943;SDS011;42848;42.524;12.052;2023-03-31T09:10:52;13.18;;;6.70;;
56943;SDS011;42848;42.524;12.052;2023-03-31T09:18:38;13.02;;;6.93;;
56943;SDS011;42848;42.524;12.052;2023-03-31T09:27:02;13.93;;;6.40;;
56943;SDS011;42848;42.524;12.052;2023-03-31T09:29:48;14.43;;;6.32;;
56943;SDS011;42848;42.524;12.052;2023-03-31T09:32:20;14.57;;;6.93;;
56943;SDS011;42848;42.524;12.052;2023-03-31T09:34:50;14.48;;;6.78;;
56943;SDS011;42848;42.524;12.052;2023-03-31T09:37:17;11.98;;;6.35;;
56943;SDS011;42848;42.524;12.052;2023-03-31T09:39:43;14.25;;;6.80;;
56943;SDS011;42848;42.524;12.052;2023-03-31T09:42:11;14.45;;;6.20;;
56943;SDS011;42848;42.524;12.052;2023-03-31T09:44:39;14.05;;;7.18;;
56943;SDS011;42848;42.524;12.052;2023-03-31T09:47:05;15.45;;;7.80;;
56943;SDS011;42848;42.524;12.052;2023-03-31T09:49:36;15.55;;;6.82;;
56943;SDS011;42848;42.524;12.052;2023-03-31T09:54:59;13.13;;;6.43;;
56943;SDS011;42848;42.524;12.052;2023-03-31T09:57:29;16.75;;;6.30;;
56943;SDS011;42848;42.524;12.052;2023-03-31T10:00:03;12.00;;;5.88;;
56943;SDS011;42848;42.524;12.052;2023-03-31T10:04:57;11.77;;;5.35;;
56943;SDS011;42848;42.524;12.052;2023-03-31T10:07:23;13.55;;;6.30;;
56943;SDS011;42848;42.524;12.052;2023-03-31T10:09:50;12.38;;;6.05;;
56943;SDS011;42848;42.524;12.052;2023-03-31T10:12:19;14.13;;;5.93;;
56943;SDS011;42848;42.524;12.052;2023-03-31T10:14:52;12.13;;;6.00;;
56943;SDS011;42848;42.524;12.052;2023-03-31T10:17:26;11.88;;;5.57;;
56943;SDS011;42848;42.524;12.052;2023-03-31T10:19:59;12.65;;;6.00;;
56943;SDS011;42848;42.524;12.052;2023-03-31T10:22:33;12.13;;;6.50;;
56943;SDS011;42848;42.524;12.052;2023-03-31T10:25:17;16.40;;;6.28;;
56943;SDS011;42848;42.524;12.052;2023-03-31T10:27:50;12.93;;;5.60;;
56943;SDS011;42848;42.524;12.052;2023-03-31T10:30:20;11.48;;;5.90;;
56943;SDS011;42848;42.524;12.052;2023-03-31T10:32:52;12.48;;;6.07;;
56943;SDS011;42848;42.524;12.052;2023-03-31T10:35:25;11.90;;;6.15;;
56943;SDS011;42848;42.524;12.052;2023-03-31T10:37:57;12.43;;;6.22;;
56943;SDS011;42848;42.524;12.052;2023-03-31T10:40:27;16.55;;;6.88;;
56943;SDS011;42848;42.524;12.052;2023-03-31T10:45:52;13.82;;;6.63;;
56943;SDS011;42848;42.524;12.052;2023-03-31T10:51:37;14.65;;;7.63;;
56943;SDS011;42848;42.524;12.052;2023-03-31T10:53:52;14.13;;;6.68;;
56943;SDS011;42848;42.524;12.052;2023-03-31T10:59:27;14.07;;;6.70;;
56943;SDS011;42848;42.524;12.052;2023-03-31T11:08:05;12.90;;;5.90;;
56943;SDS011;42848;42.524;12.052;2023-03-31T11:10:56;15.82;;;5.95;;
56943;SDS011;42848;42.524;12.052;2023-03-31T11:13:49;10.10;;;5.47;;
56943;SDS011;42848;42.524;12.052;2023-03-31T11:16:46;13.00;;;5.55;;
56943;SDS011;42848;42.524;12.052;2023-03-31T11:19:38;12.13;;;6.57;;
56943;SDS011;42848;42.524;12.052;2023-03-31T11:22:23;14.48;;;5.60;;
56943;SDS011;42848;42.524;12.052;2023-03-31T11:25:08;15.40;;;6.47;;
56943;SDS011;42848;42.524;12.052;2023-03-31T11:27:58;15.30;;;6.63;;
56943;SDS011;42848;42.524;12.052;2023-03-31T11:38:58;12.95;;;6.20;;
56943;SDS011;42848;42.524;12.052;2023-03-31T11:44:57;14.73;;;6.10;;
56943;SDS011;42848;42.524;12.052;2023-03-31T11:47:30;10.65;;;6.00;;
56943;SDS011;42848;42.524;12.052;2023-03-31T11:50:15;12.43;;;5.80;;
56943;SDS011;42848;42.524;12.052;2023-03-31T11:52:56;14.23;;;6.80;;
56943;SDS011;42848;42.524;12.052;2023-03-31T11:55:27;14.27;;;6.90;;
56943;SDS011;42848;42.524;12.052;2023-03-31T12:03:13;13.82;;;6.43;;
56943;SDS011;42848;42.524;12.052;2023-03-31T12:05:49;13.60;;;6.20;;
56943;SDS011;42848;42.524;12.052;2023-03-31T12:08:22;13.52;;;6.40;;
56943;SDS011;42848;42.524;12.052;2023-03-31T12:11:00;14.95;;;6.70;;
56943;SDS011;42848;42.524;12.052;2023-03-31T12:13:46;15.43;;;6.70;;
56943;SDS011;42848;42.524;12.052;2023-03-31T12:19:24;13.27;;;6.63;;
56943;SDS011;42848;42.524;12.052;2023-03-31T12:21:57;14.35;;;6.72;;
56943;SDS011;42848;42.524;12.052;2023-03-31T12:24:41;16.45;;;6.30;;
56943;SDS011;42848;42.524;12.052;2023-03-31T12:29:37;12.50;;;6.00;;
56943;SDS011;42848;42.524;12.052;2023-03-31T12:32:26;13.95;;;6.85;;
56943;SDS011;42848;42.524;12.052;2023-03-31T12:40:06;13.02;;;6.68;;
56943;SDS011;42848;42.524;12.052;2023-03-31T12:45:25;13.95;;;5.82;;
56943;SDS011;42848;42.524;12.052;2023-03-31T12:59:33;10.80;;;5.05;;
56943;SDS011;42848;42.524;12.052;2023-03-31T13:04:36;12.00;;;5.10;;
56943;SDS011;42848;42.524;12.052;2023-03-31T13:07:03;11.00;;;5.20;;
56943;SDS011;42848;42.524;12.052;2023-03-31T13:11:55;14.98;;;5.30;;
56943;SDS011;42848;42.524;12.052;2023-03-31T13:14:22;11.90;;;5.03;;
56943;SDS011;42848;42.524;12.052;2023-03-31T13:16:51;15.15;;;5.25;;
56943;SDS011;42848;42.524;12.052;2023-03-31T13:19:35;14.48;;;5.07;;
56943;SDS011;42848;42.524;12.052;2023-03-31T13:22:02;13.35;;;5.10;;
56943;SDS011;42848;42.524;12.052;2023-03-31T13:24:30;8.90;;;4.78;;
56943;SDS011;42848;42.524;12.052;2023-03-31T13:26:58;14.25;;;5.05;;
56943;SDS011;42848;42.524;12.052;2023-03-31T13:29:53;10.75;;;5.10;;
56943;SDS011;42848;42.524;12.052;2023-03-31T13:32:25;12.13;;;5.05;;
56943;SDS011;42848;42.524;12.052;2023-03-31T13:34:54;11.90;;;4.95;;
56943;SDS011;42848;42.524;12.052;2023-03-31T13:49:13;18.10;;;8.45;;
56943;SDS011;42848;42.524;12.052;2023-03-31T13:52:02;13.73;;;7.20;;
56943;SDS011;42848;42.524;12.052;2023-03-31T14:11:16;13.15;;;5.28;;
56943;SDS011;42848;42.524;12.052;2023-03-31T14:13:57;14.27;;;5.40;;
56943;SDS011;42848;42.524;12.052;2023-03-31T14:19:19;13.73;;;5.00;;
56943;SDS011;42848;42.524;12.052;2023-03-31T14:22:00;15.20;;;5.00;;
56943;SDS011;42848;42.524;12.052;2023-03-31T14:30:16;14.85;;;4.78;;
56943;SDS011;42848;42.524;12.052;2023-03-31T14:35:56;13.48;;;5.07;;
56943;SDS011;42848;42.524;12.052;2023-03-31T14:38:35;15.20;;;5.38;;
56943;SDS011;42848;42.524;12.052;2023-03-31T14:41:01;12.82;;;5.10;;
56943;SDS011;42848;42.524;12.052;2023-03-31T14:43:29;12.43;;;5.50;;
56943;SDS011;42848;42.524;12.052;2023-03-31T14:46:02;16.67;;;6.47;;
56943;SDS011;42848;42.524;12.052;2023-03-31T14:48:32;14.77;;;6.03;;
56943;SDS011;42848;42.524;12.052;2023-03-31T14:51:09;15.10;;;7.05;;
56943;SDS011;42848;42.524;12.052;2023-03-31T14:53:38;14.98;;;5.15;;
56943;SDS011;42848;42.524;12.052;2023-03-31T14:56:08;12.73;;;4.93;;
56943;SDS011;42848;42.524;12.052;2023-03-31T14:58:48;13.20;;;5.20;;
56943;SDS011;42848;42.524;12.052;2023-03-31T15:01:18;12.48;;;4.78;;
56943;SDS011;42848;42.524;12.052;2023-03-31T15:03:49;13.23;;;4.60;;
56943;SDS011;42848;42.524;12.052;2023-03-31T15:06:17;15.45;;;5.10;;
56943;SDS011;42848;42.524;12.052;2023-03-31T15:08:43;14.30;;;5.20;;
56943;SDS011;42848;42.524;12.052;2023-03-31T15:11:13;15.32;;;4.88;;
56943;SDS011;42848;42.524;12.052;2023-03-31T15:13:43;12.25;;;5.30;;
56943;SDS011;42848;42.524;12.052;2023-03-31T15:18:55;13.05;;;4.72;;
56943;SDS011;42848;42.524;12.052;2023-03-31T15:21:23;13.13;;;4.88;;
56943;SDS011;42848;42.524;12.052;2023-03-31T15:23:51;11.70;;;4.93;;
56943;SDS011;42848;42.524;12.052;2023-03-31T15:26:20;11.15;;;4.90;;
56943;SDS011;42848;42.524;12.052;2023-03-31T15:29:05;14.70;;;4.88;;
56943;SDS011;42848;42.524;12.052;2023-03-31T15:31:34;14.27;;;4.90;;
56943;SDS011;42848;42.524;12.052;2023-03-31T15:34:10;12.30;;;4.75;;
56943;SDS011;42848;42.524;12.052;2023-03-31T15:36:40;10.85;;;4.70;;
56943;SDS011;42848;42.524;12.052;2023-03-31T15:39:06;15.85;;;4.78;;
56943;SDS011;42848;42.524;12.052;2023-03-31T15:41:32;13.20;;;5.40;;
56943;SDS011;42848;42.524;12.052;2023-03-31T15:50:31;19.80;;;5.93;;
56943;SDS011;42848;42.524;12.052;2023-03-31T15:52:36;14.05;;;5.25;;
56943;SDS011;42848;42.524;12.052;2023-03-31T16:00:58;11.00;;;5.70;;
56943;SDS011;42848;42.524;12.052;2023-03-31T16:02:58;16.85;;;5.75;;
56943;SDS011;42848;42.524;12.052;2023-03-31T16:05:33;15.05;;;6.93;;
56943;SDS011;42848;42.524;12.052;2023-03-31T16:08:15;18.55;;;8.68;;
56943;SDS011;42848;42.524;12.052;2023-03-31T16:10:47;14.60;;;8.43;;
56943;SDS011;42848;42.524;12.052;2023-03-31T16:13:16;14.07;;;6.60;;
56943;SDS011;42848;42.524;12.052;2023-03-31T16:15:48;16.23;;;7.97;;
56943;SDS011;42848;42.524;12.052;2023-03-31T16:18:36;14.98;;;8.93;;
56943;SDS011;42848;42.524;12.052;2023-03-31T16:21:05;18.00;;;8.45;;
56943;SDS011;42848;42.524;12.052;2023-03-31T16:23:34;12.77;;;6.70;;
56943;SDS011;42848;42.524;12.052;2023-03-31T16:26:04;17.20;;;9.40;;
56943;SDS011;42848;42.524;12.052;2023-03-31T16:28:33;18.98;;;7.95;;
56943;SDS011;42848;42.524;12.052;2023-03-31T16:31:00;15.48;;;6.13;;
56943;SDS011;42848;42.524;12.052;2023-03-31T16:33:26;15.05;;;6.13;;
56943;SDS011;42848;42.524;12.052;2023-03-31T16:35:55;12.63;;;5.60;;
56943;SDS011;42848;42.524;12.052;2023-03-31T16:38:23;12.82;;;5.88;;
56943;SDS011;42848;42.524;12.052;2023-03-31T16:40:51;12.32;;;5.70;;
56943;SDS011;42848;42.524;12.052;2023-03-31T16:43:23;15.63;;;6.55;;
56943;SDS011;42848;42.524;12.052;2023-03-31T16:45:58;12.90;;;5.10;;
56943;SDS011;42848;42.524;12.052;2023-03-31T16:48:26;15.68;;;6.10;;
56943;SDS011;42848;42.524;12.052;2023-03-31T16:50:54;16.23;;;6.97;;
56943;SDS011;42848;42.524;12.052;2023-03-31T16:53:22;15.52;;;7.70;;
56943;SDS011;42848;42.524;12.052;2023-03-31T16:55:50;14.93;;;6.95;;
56943;SDS011;42848;42.524;12.052;2023-03-31T16:58:16;14.13;;;7.13;;
56943;SDS011;42848;42.524;12.052;2023-03-31T17:00:43;20.02;;;7.43;;
56943;SDS011;42848;42.524;12.052;2023-03-31T17:03:09;14.02;;;7.32;;
56943;SDS011;42848;42.524;12.052;2023-03-31T17:05:42;15.43;;;7.75;;
56943;SDS011;42848;42.524;12.052;2023-03-31T17:10:36;14.80;;;8.00;;
56943;SDS011;42848;42.524;12.052;2023-03-31T17:13:03;19.05;;;8.82;;
56943;SDS011;42848;42.524;12.052;2023-03-31T17:15:29;14.35;;;7.38;;
56943;SDS011;42848;42.524;12.052;2023-03-31T17:17:56;17.17;;;7.60;;
56943;SDS011;42848;42.524;12.052;2023-03-31T17:20:23;17.27;;;7.93;;
56943;SDS011;42848;42.524;12.052;2023-03-31T17:22:50;22.20;;;7.13;;
56943;SDS011;42848;42.524;12.052;2023-03-31T17:25:16;18.88;;;8.05;;
56943;SDS011;42848;42.524;12.052;2023-03-31T17:27:43;21.85;;;8.60;;
56943;SDS011;42848;42.524;12.052;2023-03-31T17:30:09;17.20;;;8.63;;
56943;SDS011;42848;42.524;12.052;2023-03-31T17:32:36;19.52;;;10.05;;
56943;SDS011;42848;42.524;12.052;2023-03-31T17:35:02;22.25;;;11.73;;
56943;SDS011;42848;42.524;12.052;2023-03-31T17:37:28;26.40;;;14.60;;
56943;SDS011;42848;42.524;12.052;2023-03-31T17:39:54;25.50;;;13.80;;
56943;SDS011;42848;42.524;12.052;2023-03-31T17:42:20;21.95;;;10.07;;
56943;SDS011;42848;42.524;12.052;2023-03-31T17:44:46;32.05;;;15.35;;
56943;SDS011;42848;42.524;12.052;2023-03-31T17:47:14;19.67;;;10.43;;
56943;SDS011;42848;42.524;12.052;2023-03-31T17:49:41;23.98;;;11.63;;